Time;durP1;ratioP1;P1;durP2;ratioP2;P2;SDS_P1;SDS_P2;PMS_P1;PMS_P2;Temp;Humidity;BMP_temperature;BMP_pressure;BME280_temperature;BME280_humidity;BME280_pressure;Samples;Min_cycle;Max_cycle;Signal;HPM_P1;HPM_P2
2022/10/31 00:01:54;;;;;;;7.90;0.90;;;;;;;14.74;100.00;101254.72;5054712;28;20039;-85
2022/10/31 00:04:20;;;;;;;7.18;0.98;;;;;;;14.76;100.00;101258.00;5055769;28;20037;-87
2022/10/31 00:06:45;;;;;;;4.97;0.57;;;;;;;14.79;100.00;101267.38;5026417;28;20029;-85
2022/10/31 00:09:11;;;;;;;8.25;0.70;;;;;;;14.77;100.00;101264.06;5051334;28;20361;-85
2022/10/31 00:11:37;;;;;;;4.32;0.70;;;;;;;14.69;100.00;101266.63;5033069;28;20496;-85
2022/10/31 00:14:03;;;;;;;6.68;1.17;;;;;;;14.64;100.00;101268.91;5026729;28;20132;-85
2022/10/31 00:16:29;;;;;;;9.43;0.85;;;;;;;14.60;100.00;101257.91;5037691;28;20423;-85
2022/10/31 00:18:57;;;;;;;7.03;0.80;;;;;;;14.59;100.00;101267.56;5056758;28;20033;-85
2022/10/31 00:21:24;;;;;;;9.80;1.10;;;;;;;14.61;100.00;101270.03;5035403;28;20036;-87
2022/10/31 00:23:50;;;;;;;8.80;1.45;;;;;;;14.57;100.00;101266.06;5034234;28;20120;-85
2022/10/31 00:26:15;;;;;;;6.45;1.08;;;;;;;14.56;100.00;101262.63;5042427;28;20116;-85
2022/10/31 00:28:41;;;;;;;6.82;1.23;;;;;;;14.55;100.00;101266.22;5044239;28;20028;-85
2022/10/31 00:31:08;;;;;;;8.43;0.88;;;;;;;14.54;100.00;101269.00;5029347;28;20083;-84
2022/10/31 00:33:36;;;;;;;8.23;1.17;;;;;;;14.53;99.97;101264.72;5026868;28;20021;-84
2022/10/31 00:36:02;;;;;;;4.13;0.65;;;;;;;14.54;100.00;101263.75;5046588;28;20032;-85
2022/10/31 00:38:28;;;;;;;10.10;0.90;;;;;;;14.54;100.00;101263.75;5045896;28;20029;-85
2022/10/31 00:40:53;;;;;;;10.48;1.20;;;;;;;14.49;100.00;101263.38;5033580;28;20045;-84
2022/10/31 00:43:19;;;;;;;7.63;1.27;;;;;;;14.45;100.00;101269.88;5055472;28;20032;-85
2022/10/31 00:45:44;;;;;;;13.93;1.10;;;;;;;14.48;100.00;101264.34;5019725;28;20033;-85
2022/10/31 00:48:10;;;;;;;9.65;1.42;;;;;;;14.46;100.00;101268.91;5026049;28;20047;-85
2022/10/31 00:50:37;;;;;;;9.05;0.90;;;;;;;14.47;100.00;101270.56;5039780;28;20166;-86
2022/10/31 00:53:02;;;;;;;7.03;1.10;;;;;;;14.43;100.00;101256.94;5035003;28;20029;-86
2022/10/31 00:55:28;;;;;;;5.75;1.00;;;;;;;14.41;100.00;101269.34;5048032;28;20033;-85
2022/10/31 00:57:53;;;;;;;6.45;1.00;;;;;;;14.41;100.00;101266.75;5019928;28;20025;-85
2022/10/31 01:00:19;;;;;;;8.18;0.70;;;;;;;14.41;100.00;101258.88;5037403;28;20021;-85
2022/10/31 01:02:44;;;;;;;7.60;0.95;;;;;;;14.42;99.35;101260.53;5025264;28;20079;-85
2022/10/31 01:05:10;;;;;;;3.65;0.50;;;;;;;14.40;99.59;101248.50;5049927;28;20503;-85
2022/10/31 01:07:36;;;;;;;8.27;0.80;;;;;;;14.39;99.46;101252.09;5025722;28;20032;-85
2022/10/31 01:10:02;;;;;;;6.70;0.60;;;;;;;14.41;98.70;101258.00;5030403;28;20032;-84
2022/10/31 01:12:28;;;;;;;8.68;1.30;;;;;;;14.41;98.82;101255.41;5022151;28;20056;-85
2022/10/31 01:14:53;;;;;;;8.00;0.93;;;;;;;14.41;98.44;101252.78;5037733;28;20045;-87
2022/10/31 01:17:19;;;;;;;11.40;1.20;;;;;;;14.40;98.53;101251.13;5022349;28;20347;-86
2022/10/31 01:19:45;;;;;;;12.32;1.00;;;;;;;14.41;98.61;101251.00;5032238;28;20096;-86
2022/10/31 01:22:10;;;;;;;9.52;1.02;;;;;;;14.38;98.86;101248.66;5028100;28;20441;-85
2022/10/31 01:24:36;;;;;;;4.15;0.60;;;;;;;14.35;99.52;101242.88;5023976;28;20025;-86
2022/10/31 01:27:02;;;;;;;11.18;0.60;;;;;;;14.32;99.97;101244.00;5043971;28;20036;-86
2022/10/31 01:29:27;;;;;;;12.27;1.23;;;;;;;14.28;100.00;101243.47;5028162;28;20685;-87
2022/10/31 01:31:52;;;;;;;5.07;1.10;;;;;;;14.24;100.00;101243.94;5049314;28;20173;-88
2022/10/31 01:34:18;;;;;;;6.13;1.17;;;;;;;14.17;100.00;101240.28;5043074;28;20459;-85
2022/10/31 01:36:47;;;;;;;12.75;1.27;;;;;;;14.12;100.00;101243.34;5026680;28;20071;-86
2022/10/31 01:39:14;;;;;;;9.70;0.95;;;;;;;14.07;100.00;101248.19;5037600;28;20029;-84
2022/10/31 01:41:46;;;;;;;4.82;1.40;;;;;;;14.01;100.00;101240.94;5045303;28;20086;-84
2022/10/31 01:44:14;;;;;;;12.77;1.88;;;;;;;13.99;100.00;101248.13;5026759;28;20128;-83
2022/10/31 01:46:51;;;;;;;6.40;0.80;;;;;;;13.93;100.00;101244.28;5043875;28;20036;-84
2022/10/31 01:49:23;;;;;;;10.70;1.15;;;;;;;13.91;100.00;101234.91;5040862;28;20333;-85
2022/10/31 01:51:58;;;;;;;4.55;0.90;;;;;;;13.88;100.00;101245.69;5039423;28;20033;-84
2022/10/31 01:54:30;;;;;;;6.15;0.63;;;;;;;13.89;100.00;101244.72;5025470;28;20365;-84
2022/10/31 01:56:57;;;;;;;8.10;0.70;;;;;;;13.92;100.00;101239.19;5041538;28;20036;-84
2022/10/31 01:59:28;;;;;;;5.38;1.30;;;;;;;13.94;100.00;101242.50;5017716;28;20021;-84
2022/10/31 02:01:54;;;;;;;8.10;0.80;;;;;;;13.93;100.00;101243.47;5043393;28;20043;-84
2022/10/31 02:04:23;;;;;;;3.67;1.08;;;;;;;13.93;100.00;101253.94;5047865;28;20343;-84
2022/10/31 02:06:56;;;;;;;9.18;1.13;;;;;;;13.92;100.00;101241.81;5040933;28;20385;-85
2022/10/31 02:09:23;;;;;;;3.75;0.95;;;;;;;13.89;100.00;101242.09;5045414;28;20033;-85
2022/10/31 02:11:55;;;;;;;5.72;0.80;;;;;;;13.91;100.00;101243.59;5051258;28;20768;-84
2022/10/31 02:14:29;;;;;;;5.63;1.27;;;;;;;13.87;100.00;101242.25;5046843;28;20041;-85
2022/10/31 02:16:55;;;;;;;5.28;1.05;;;;;;;13.84;100.00;101233.84;5055828;28;20074;-85
2022/10/31 02:19:43;;;;;;;7.30;0.80;;;;;;;13.82;100.00;101231.38;5044597;28;20029;-85
2022/10/31 02:22:14;;;;;;;9.90;1.13;;;;;;;13.86;100.00;101234.53;5042579;28;20076;-85
2022/10/31 02:24:54;;;;;;;11.63;1.33;;;;;;;13.89;100.00;101226.38;5040741;28;20112;-86
2022/10/31 02:27:32;;;;;;;6.03;0.60;;;;;;;13.91;100.00;101234.91;5051708;28;20360;-85
2022/10/31 02:30:14;;;;;;;11.55;1.13;;;;;;;13.93;100.00;101231.19;5044365;28;20029;-85
2022/10/31 02:32:46;;;;;;;12.77;1.25;;;;;;;13.95;100.00;101236.28;5046584;28;20033;-86
2022/10/31 02:35:28;;;;;;;13.18;1.50;;;;;;;13.95;100.00;101236.28;5053484;28;20028;-86
2022/10/31 02:37:56;;;;;;;3.55;0.73;;;;;;;13.92;100.00;101233.94;5037159;28;20072;-87
2022/10/31 02:40:27;;;;;;;8.85;1.20;;;;;;;13.86;100.00;101237.16;5032251;28;20040;-86
2022/10/31 02:43:07;;;;;;;8.27;0.93;;;;;;;13.79;100.00;101234.28;5041665;28;20158;-85
2022/10/31 02:45:44;;;;;;;9.82;0.98;;;;;;;13.79;100.00;101239.53;5039731;28;20037;-85
2022/10/31 02:48:16;;;;;;;9.75;0.93;;;;;;;13.83;100.00;101232.22;5046359;28;20064;-85
2022/10/31 02:50:48;;;;;;;5.55;0.85;;;;;;;13.85;100.00;101238.94;5045393;28;20559;-85
2022/10/31 02:53:15;;;;;;;9.93;0.88;;;;;;;13.84;100.00;101231.25;5048308;28;20128;-85
2022/10/31 02:55:49;;;;;;;7.20;0.70;;;;;;;13.80;100.00;101235.13;5047214;28;20075;-86
2022/10/31 02:58:20;;;;;;;11.65;0.90;;;;;;;13.78;100.00;101235.25;5024860;28;20022;-84
2022/10/31 03:01:04;;;;;;;13.48;1.58;;;;;;;13.78;100.00;101232.66;5034072;28;20068;-85
2022/10/31 03:03:48;;;;;;;7.32;1.25;;;;;;;13.74;100.00;101233.09;5050358;28;20147;-85
2022/10/31 03:06:17;;;;;;;13.18;1.30;;;;;;;13.72;100.00;101230.59;5040918;28;20098;-84
2022/10/31 03:09:03;;;;;;;7.35;1.35;;;;;;;13.70;100.00;101231.75;5047683;28;20029;-85
2022/10/31 03:11:36;;;;;;;4.72;1.20;;;;;;;13.69;100.00;101238.78;5028042;28;20090;-84
2022/10/31 03:14:12;;;;;;;5.45;1.38;;;;;;;13.66;100.00;101230.41;5034853;28;20505;-85
2022/10/31 03:16:48;;;;;;;8.93;1.02;;;;;;;13.64;100.00;101232.34;5046346;28;20507;-85
2022/10/31 03:19:41;;;;;;;7.50;1.02;;;;;;;13.59;100.00;101238.81;5042937;28;20070;-87
2022/10/31 03:22:17;;;;;;;8.77;1.08;;;;;;;13.64;100.00;101242.81;5018362;28;20469;-85
2022/10/31 03:24:45;;;;;;;3.90;0.90;;;;;;;13.64;100.00;101229.72;5047462;28;20025;-84
2022/10/31 03:27:14;;;;;;;8.98;0.60;;;;;;;13.61;100.00;101239.50;5042197;28;20104;-85
2022/10/31 03:29:43;;;;;;;5.85;1.00;;;;;;;13.60;100.00;101237.88;5035471;28;20075;-86
2022/10/31 03:32:14;;;;;;;4.07;1.13;;;;;;;13.55;100.00;101232.22;5028357;28;20025;-85
2022/10/31 03:34:43;;;;;;;9.13;1.10;;;;;;;13.52;100.00;101227.28;5044864;28;20024;-85
2022/10/31 03:37:13;;;;;;;10.18;1.10;;;;;;;13.48;100.00;101246.88;5048590;28;20103;-84
2022/10/31 03:39:43;;;;;;;8.15;1.08;;;;;;;13.41;100.00;101243.16;5047485;28;20043;-85
2022/10/31 03:42:14;;;;;;;10.57;1.73;;;;;;;13.41;100.00;101242.34;5026045;28;20029;-85
2022/10/31 03:44:46;;;;;;;9.90;0.90;;;;;;;13.38;100.00;101242.63;5046161;28;20039;-84
2022/10/31 03:47:12;;;;;;;9.57;0.90;;;;;;;13.40;100.00;101238.06;5030012;28;20032;-84
2022/10/31 03:49:38;;;;;;;8.65;0.80;;;;;;;13.47;100.00;101239.97;5049611;28;20135;-86
2022/10/31 03:52:43;;;;;;;6.82;1.02;;;;;;;13.51;100.00;101246.56;5044192;28;20082;-84
2022/10/31 03:55:16;;;;;;;6.20;0.70;;;;;;;13.48;100.00;101244.25;5028020;28;20144;-85
2022/10/31 03:57:48;;;;;;;12.25;1.10;;;;;;;13.49;100.00;101239.84;5040050;28;20383;-84
2022/10/31 04:00:15;;;;;;;8.55;1.13;;;;;;;13.51;100.00;101238.72;5030432;28;20040;-85
2022/10/31 04:02:46;;;;;;;6.57;1.38;;;;;;;13.52;100.00;101245.59;5045026;28;20025;-85
2022/10/31 04:05:15;;;;;;;6.65;1.15;;;;;;;13.50;100.00;101249.34;5054208;28;20033;-85
2022/10/31 04:07:45;;;;;;;8.80;1.42;;;;;;;13.46;100.00;101245.34;5041884;28;20029;-85
2022/10/31 04:10:14;;;;;;;9.80;1.13;;;;;;;13.48;100.00;101253.91;5047507;28;20021;-85
2022/10/31 04:12:41;;;;;;;6.68;1.00;;;;;;;13.53;100.00;101257.72;5046715;28;20037;-85
2022/10/31 04:15:09;;;;;;;5.32;0.88;;;;;;;13.54;100.00;101253.31;5044065;28;20025;-84
2022/10/31 04:17:39;;;;;;;5.65;1.05;;;;;;;13.49;100.00;101255.53;5044025;28;20049;-84
2022/10/31 04:20:05;;;;;;;7.90;1.15;;;;;;;13.49;100.00;101251.13;5032309;28;20485;-85
2022/10/31 04:22:30;;;;;;;6.78;0.98;;;;;;;13.47;100.00;101254.88;5033030;28;20040;-88
2022/10/31 04:24:56;;;;;;;9.25;1.10;;;;;;;13.44;100.00;101250.75;5036479;28;20355;-86
2022/10/31 04:27:21;;;;;;;6.30;0.60;;;;;;;13.42;100.00;101252.66;5041475;28;20044;-85
2022/10/31 04:29:47;;;;;;;7.63;1.20;;;;;;;13.38;100.00;101261.78;5048501;28;20455;-85
2022/10/31 04:32:12;;;;;;;5.45;0.70;;;;;;;13.35;100.00;101254.22;5044632;28;20048;-84
2022/10/31 04:34:38;;;;;;;7.28;1.13;;;;;;;13.35;100.00;101254.22;5045719;28;20523;-85
2022/10/31 04:37:03;;;;;;;5.38;0.70;;;;;;;13.35;100.00;101254.22;5045552;28;20021;-85
2022/10/31 04:39:28;;;;;;;6.95;1.15;;;;;;;13.34;100.00;101257.78;5046969;28;20491;-85
2022/10/31 04:41:54;;;;;;;8.77;0.90;;;;;;;13.34;100.00;101254.34;5043002;28;20059;-86
2022/10/31 04:44:19;;;;;;;4.88;1.02;;;;;;;13.32;100.00;101258.91;5046105;28;20151;-85
2022/10/31 04:46:45;;;;;;;6.22;0.70;;;;;;;13.32;100.00;101253.66;5047541;28;20028;-85
2022/10/31 04:49:10;;;;;;;9.40;1.13;;;;;;;13.29;100.00;101255.59;5044566;28;20028;-86
2022/10/31 04:51:35;;;;;;;5.35;0.98;;;;;;;13.27;100.00;101252.31;5047878;28;20025;-87
2022/10/31 04:54:01;;;;;;;7.00;0.82;;;;;;;13.23;100.00;101255.38;5040550;28;20395;-85
2022/10/31 04:56:26;;;;;;;7.53;1.00;;;;;;;13.23;100.00;101255.38;5019238;28;20025;-86
2022/10/31 04:58:52;;;;;;;6.38;1.17;;;;;;;13.18;100.00;101252.38;5046136;28;20480;-88
2022/10/31 05:01:17;;;;;;;5.47;0.75;;;;;;;13.16;100.00;101255.13;5042159;28;20408;-85
2022/10/31 05:03:43;;;;;;;8.10;0.93;;;;;;;13.18;100.00;101249.75;5027315;28;20372;-85
2022/10/31 05:06:08;;;;;;;11.63;1.30;;;;;;;13.25;100.00;101254.25;5042319;28;20372;-84
2022/10/31 05:08:34;;;;;;;4.93;0.60;;;;;;;13.25;100.00;101258.66;5050662;28;20031;-86
2022/10/31 05:11:01;;;;;;;6.43;0.90;;;;;;;13.28;100.00;101258.38;5040122;28;20044;-88
2022/10/31 05:13:27;;;;;;;5.60;1.23;;;;;;;13.29;100.00;101249.53;5040260;28;20052;-85
2022/10/31 05:15:52;;;;;;;7.68;0.98;;;;;;;13.31;100.00;101242.38;5042647;28;20041;-85
2022/10/31 05:18:18;;;;;;;8.73;0.90;;;;;;;13.33;100.00;101256.16;5046718;28;20044;-85
2022/10/31 05:20:43;;;;;;;9.13;0.95;;;;;;;13.32;99.91;101253.66;5037593;28;20339;-86
2022/10/31 05:23:09;;;;;;;11.05;1.20;;;;;;;13.30;100.00;101251.19;5039720;28;20047;-85
2022/10/31 05:25:34;;;;;;;9.07;0.95;;;;;;;13.26;100.00;101255.88;5045573;28;20021;-85
2022/10/31 05:27:59;;;;;;;6.95;0.70;;;;;;;13.20;100.00;101256.50;5043229;28;20384;-87
2022/10/31 05:30:30;;;;;;;12.48;1.05;;;;;;;13.17;100.00;101250.72;5042460;28;20035;-84
2022/10/31 05:32:56;;;;;;;7.38;1.50;;;;;;;13.13;100.00;101257.16;5029997;28;20033;-87
2022/10/31 05:35:25;;;;;;;9.40;0.98;;;;;;;13.15;100.00;101256.06;5046240;28;20400;-84
2022/10/31 05:37:51;;;;;;;7.35;1.13;;;;;;;13.15;100.00;101258.66;5045267;28;20043;-84
2022/10/31 05:40:18;;;;;;;5.88;1.65;;;;;;;13.13;100.00;101258.00;5045106;28;20029;-85
2022/10/31 05:42:44;;;;;;;7.57;1.08;;;;;;;13.15;100.00;101250.00;5045798;28;20075;-84
2022/10/31 05:45:15;;;;;;;5.32;1.00;;;;;;;13.12;100.00;101250.28;5058439;28;20059;-85
2022/10/31 05:47:41;;;;;;;8.90;1.05;;;;;;;13.12;100.00;101258.94;5046266;28;20095;-83
2022/10/31 05:50:08;;;;;;;11.32;0.85;;;;;;;13.09;100.00;101263.63;5054144;28;20117;-86
2022/10/31 05:52:34;;;;;;;6.60;0.90;;;;;;;13.09;100.00;101255.78;5051732;28;20488;-85
2022/10/31 05:54:59;;;;;;;10.82;0.80;;;;;;;13.05;100.00;101254.41;5050601;28;20067;-85
2022/10/31 05:57:25;;;;;;;9.27;0.98;;;;;;;13.03;100.00;101258.97;5045449;28;20033;-85
2022/10/31 05:59:52;;;;;;;9.15;0.75;;;;;;;13.08;100.00;101265.44;5065529;28;20060;-84
2022/10/31 06:02:19;;;;;;;11.45;1.00;;;;;;;13.10;100.00;101265.28;5052168;28;20553;-83
2022/10/31 06:04:44;;;;;;;6.07;1.20;;;;;;;13.07;100.00;101265.56;5047148;28;20079;-85
2022/10/31 06:07:10;;;;;;;9.52;0.80;;;;;;;13.05;100.00;101264.88;5039240;28;20041;-85
2022/10/31 06:09:35;;;;;;;9.05;1.33;;;;;;;13.06;100.00;101263.91;5032094;28;20097;-87
2022/10/31 06:12:01;;;;;;;10.23;1.27;;;;;;;13.06;100.00;101271.78;5045210;28;20067;-86
2022/10/31 06:14:26;;;;;;;6.47;1.20;;;;;;;13.06;100.00;101269.16;5040282;28;20049;-85
2022/10/31 06:16:53;;;;;;;8.75;1.15;;;;;;;13.10;100.00;101273.13;5030060;28;20043;-86
2022/10/31 06:19:19;;;;;;;5.07;1.38;;;;;;;13.12;100.00;101282.50;5049172;28;20037;-84
2022/10/31 06:21:44;;;;;;;8.00;0.70;;;;;;;13.14;100.00;101284.97;5029741;28;20377;-84
2022/10/31 06:24:09;;;;;;;11.00;0.73;;;;;;;13.18;99.55;101281.97;5035881;28;20448;-85
2022/10/31 06:26:35;;;;;;;8.73;0.85;;;;;;;13.23;99.27;101282.34;5032261;28;21142;-84
2022/10/31 06:29:00;;;;;;;6.65;1.20;;;;;;;13.26;99.26;101282.06;5039904;28;20447;-85
2022/10/31 06:31:26;;;;;;;11.10;1.40;;;;;;;13.29;98.95;101280.94;5044163;28;20341;-85
2022/10/31 06:33:51;;;;;;;9.10;1.10;;;;;;;13.32;98.89;101285.91;5037749;28;20156;-84
2022/10/31 06:36:16;;;;;;;7.13;0.77;;;;;;;13.36;98.43;101287.28;5046900;28;20037;-86
2022/10/31 06:38:42;;;;;;;9.73;0.80;;;;;;;13.38;97.97;101285.34;5059289;28;20025;-83
2022/10/31 06:41:07;;;;;;;9.27;0.98;;;;;;;13.40;98.45;101286.03;5048514;28;20025;-84
2022/10/31 06:43:33;;;;;;;9.32;1.25;;;;;;;13.40;98.59;101287.81;5044017;28;20059;-84
2022/10/31 06:46:02;;;;;;;6.13;1.02;;;;;;;13.41;98.06;101295.53;5031443;28;20404;-84
2022/10/31 06:48:27;;;;;;;10.32;1.40;;;;;;;13.46;97.70;101295.09;5038987;28;20033;-85
2022/10/31 06:50:53;;;;;;;8.38;1.10;;;;;;;13.48;97.71;101291.38;5030984;28;20086;-83
2022/10/31 06:53:18;;;;;;;9.75;1.17;;;;;;;13.55;97.25;101304.72;5032992;28;20047;-83
2022/10/31 06:55:44;;;;;;;6.68;0.90;;;;;;;13.59;96.86;101301.66;5045426;28;20031;-83
2022/10/31 06:58:10;;;;;;;5.88;1.15;;;;;;;13.61;96.75;101302.34;5051004;28;20066;-84
2022/10/31 07:00:36;;;;;;;4.63;0.70;;;;;;;13.61;96.71;101302.34;5037535;28;20030;-83
2022/10/31 07:03:09;;;;;;;10.52;0.80;;;;;;;13.64;97.04;101309.09;5048240;28;20074;-83
2022/10/31 07:05:34;;;;;;;8.50;1.05;;;;;;;13.64;96.54;101306.47;5045243;28;20024;-83
2022/10/31 07:08:03;;;;;;;7.28;0.63;;;;;;;13.67;96.35;101310.59;5035411;28;20033;-83
2022/10/31 07:10:31;;;;;;;6.18;0.70;;;;;;;13.74;96.09;101306.41;5045515;28;20030;-85
2022/10/31 07:12:58;;;;;;;8.23;0.80;;;;;;;13.81;95.93;101307.47;5040829;28;20057;-84
2022/10/31 07:15:28;;;;;;;6.75;1.00;;;;;;;13.89;94.77;101312.81;5030544;28;20042;-86
2022/10/31 07:18:00;;;;;;;7.13;1.02;;;;;;;13.89;94.94;101307.59;5037660;28;20057;-84
2022/10/31 07:20:25;;;;;;;7.68;0.93;;;;;;;13.98;95.13;101308.53;5042353;28;20487;-82
2022/10/31 07:22:51;;;;;;;7.22;0.98;;;;;;;13.99;94.71;101311.00;5043309;28;20033;-83
2022/10/31 07:25:16;;;;;;;7.97;0.82;;;;;;;14.01;95.34;101318.72;5057903;28;20051;-83
2022/10/31 07:27:42;;;;;;;4.97;0.93;;;;;;;14.09;94.64;101313.56;5035999;28;20056;-85
2022/10/31 07:30:11;;;;;;;8.32;0.95;;;;;;;14.17;94.10;101319.72;5040378;28;20037;-84
2022/10/31 07:32:44;;;;;;;9.13;0.93;;;;;;;14.23;93.66;101320.91;5045562;28;20109;-85
2022/10/31 07:35:11;;;;;;;6.95;0.88;;;;;;;14.28;93.37;101318.66;5040709;28;20029;-84
2022/10/31 07:37:37;;;;;;;7.45;1.08;;;;;;;14.33;92.62;101323.47;5047010;28;20457;-84
2022/10/31 07:40:04;;;;;;;7.78;1.48;;;;;;;14.40;93.17;101312.25;5042278;28;20029;-84
2022/10/31 07:42:35;;;;;;;5.63;0.80;;;;;;;14.45;93.10;101311.84;5028463;28;20097;-87
2022/10/31 07:45:01;;;;;;;5.57;0.77;;;;;;;14.47;93.17;101315.13;5025261;28;20052;-85
2022/10/31 07:47:26;;;;;;;9.35;0.82;;;;;;;14.54;92.90;101309.16;5058723;28;20106;-84
2022/10/31 07:49:51;;;;;;;6.85;1.25;;;;;;;14.59;92.38;101316.56;5019349;28;20032;-83
2022/10/31 07:52:17;;;;;;;7.90;0.70;;;;;;;14.65;92.78;101318.56;5018160;28;20037;-84
2022/10/31 07:54:42;;;;;;;10.80;0.88;;;;;;;14.70;92.51;101313.69;5043606;28;20021;-82
2022/10/31 07:57:08;;;;;;;13.32;1.42;;;;;;;14.78;92.48;101318.19;5044170;28;20072;-84
2022/10/31 07:59:33;;;;;;;12.77;1.27;;;;;;;14.90;92.08;101312.56;5043027;28;20043;-83
2022/10/31 08:01:58;;;;;;;5.97;0.82;;;;;;;14.97;91.86;101311.97;5024584;28;20036;-83
2022/10/31 08:04:24;;;;;;;8.77;0.70;;;;;;;15.06;90.97;101316.28;5040780;28;20052;-83
2022/10/31 08:06:49;;;;;;;10.52;1.52;;;;;;;15.20;89.28;101320.97;5043572;28;20381;-84
2022/10/31 08:09:15;;;;;;;8.60;1.98;;;;;;;15.27;89.75;101301.00;5047524;28;20029;-80
2022/10/31 08:11:40;;;;;;;11.43;0.95;;;;;;;15.29;89.04;101301.66;5045307;28;21665;-80
2022/10/31 08:14:06;;;;;;;6.65;0.80;;;;;;;15.34;88.89;101299.41;5043799;28;20098;-80
2022/10/31 08:16:31;;;;;;;9.75;1.15;;;;;;;15.41;88.13;101304.88;5049877;28;20044;-79
2022/10/31 08:18:56;;;;;;;6.32;0.82;;;;;;;15.40;88.77;101309.28;5047135;28;20032;-79
2022/10/31 08:21:22;;;;;;;5.53;1.10;;;;;;;15.50;88.53;101303.94;5045768;28;20029;-80
2022/10/31 08:23:47;;;;;;;3.53;0.93;;;;;;;15.62;87.60;101307.94;5048443;28;20123;-78
2022/10/31 08:26:13;;;;;;;7.88;0.80;;;;;;;15.76;87.30;101302.09;5039641;28;20046;-79
2022/10/31 08:28:38;;;;;;;4.85;1.02;;;;;;;15.81;87.49;101306.88;5050704;28;20085;-79
2022/10/31 08:31:05;;;;;;;8.07;0.95;;;;;;;15.76;88.00;101303.91;5046993;28;20021;-80
2022/10/31 08:33:30;;;;;;;8.30;1.42;;;;;;;15.91;86.51;101297.09;5028568;28;20486;-79
2022/10/31 08:35:58;;;;;;;5.05;0.65;;;;;;;16.04;85.59;101296.63;5053641;28;20043;-79
2022/10/31 08:38:23;;;;;;;6.47;1.10;;;;;;;16.13;84.83;101304.34;5046697;28;20025;-80
2022/10/31 08:40:49;;;;;;;9.40;0.90;;;;;;;16.13;85.79;101300.91;5048376;28;20124;-79
2022/10/31 08:43:16;;;;;;;10.68;0.70;;;;;;;16.21;86.00;101299.13;5051853;28;20404;-80
2022/10/31 08:45:46;;;;;;;6.80;0.70;;;;;;;16.33;85.16;101301.47;5050376;28;20033;-79
2022/10/31 08:48:14;;;;;;;11.88;0.80;;;;;;;16.37;85.18;101300.97;5045522;28;20502;-80
2022/10/31 08:50:40;;;;;;;9.98;1.25;;;;;;;16.36;85.53;101301.97;5040730;28;20040;-80
2022/10/31 08:53:14;;;;;;;6.75;1.05;;;;;;;16.47;83.96;101306.09;5044611;28;20045;-80
2022/10/31 08:55:43;;;;;;;6.40;0.65;;;;;;;16.58;82.80;101305.75;5036442;28;20029;-79
2022/10/31 08:58:14;;;;;;;8.85;0.65;;;;;;;16.69;82.56;101302.84;5045765;28;20241;-79
2022/10/31 09:00:40;;;;;;;6.38;0.90;;;;;;;16.83;82.84;101304.00;5040798;28;20436;-80
2022/10/31 09:03:12;;;;;;;7.90;1.30;;;;;;;16.84;82.83;101305.63;5040644;28;20048;-80
2022/10/31 09:05:38;;;;;;;8.25;0.85;;;;;;;16.78;83.39;101307.13;5045210;28;20039;-80
2022/10/31 09:08:05;;;;;;;5.88;0.60;;;;;;;16.89;82.34;101298.06;5038734;28;20025;-80
2022/10/31 09:10:32;;;;;;;10.63;0.77;;;;;;;16.85;83.24;101305.47;5028598;28;20120;-79
2022/10/31 09:13:00;;;;;;;10.75;0.93;;;;;;;16.87;83.74;101306.13;5037411;28;20049;-79
2022/10/31 09:15:27;;;;;;;8.07;0.75;;;;;;;17.10;82.67;101316.78;5041420;28;20032;-80
2022/10/31 09:17:53;;;;;;;9.90;0.82;;;;;;;17.13;83.05;101310.38;5044369;28;20560;-81
2022/10/31 09:20:20;;;;;;;9.88;1.08;;;;;;;17.23;82.46;101305.75;5042317;28;20563;-80
2022/10/31 09:22:46;;;;;;;14.38;1.52;;;;;;;17.37;80.73;101310.34;5047970;28;20539;-80
2022/10/31 09:25:12;;;;;;;7.50;0.90;;;;;;;17.37;81.38;101307.72;5047417;28;20196;-80
2022/10/31 09:27:37;;;;;;;13.05;1.63;;;;;;;17.28;82.41;101310.53;5048597;28;20036;-80
2022/10/31 09:30:04;;;;;;;5.15;0.70;;;;;;;17.46;81.42;101306.69;5047646;28;20044;-80
2022/10/31 09:32:29;;;;;;;7.90;1.05;;;;;;;17.48;81.29;101304.72;5045900;28;20052;-80
2022/10/31 09:34:55;;;;;;;9.13;1.15;;;;;;;17.53;81.89;101310.28;5047408;28;20058;-79
2022/10/31 09:37:20;;;;;;;4.70;0.50;;;;;;;17.76;80.57;101307.78;5031411;28;20170;-80
2022/10/31 09:39:45;;;;;;;11.38;0.85;;;;;;;17.74;80.61;101303.66;5048555;28;20024;-80
2022/10/31 09:42:33;;;;;;;7.60;0.75;;;;;;;17.73;80.47;101308.09;5049818;28;20025;-79
2022/10/31 09:45:05;;;;;;;8.40;0.98;;;;;;;17.81;81.25;101309.91;5047868;28;20131;-79
2022/10/31 09:48:08;;;;;;;6.00;1.13;;;;;;;17.90;77.64;101303.59;5044729;28;20039;-79
2022/10/31 09:50:36;;;;;;;7.38;0.65;;;;;;;18.08;79.47;101300.69;5045437;28;20120;-79
2022/10/31 09:53:14;;;;;;;6.97;1.00;;;;;;;18.20;77.52;101307.22;5053595;28;20028;-79
2022/10/31 09:55:43;;;;;;;6.90;0.95;;;;;;;18.34;77.18;101306.47;5039807;28;20032;-79
2022/10/31 09:58:19;;;;;;;6.35;0.70;;;;;;;18.38;76.86;101304.31;5049851;28;20458;-80
2022/10/31 10:00:47;;;;;;;7.10;0.68;;;;;;;18.42;77.80;101303.78;5039463;28;20029;-79
2022/10/31 10:03:24;;;;;;;5.95;0.85;;;;;;;18.34;77.57;101303.03;5046531;28;20061;-79
2022/10/31 10:06:22;;;;;;;9.07;1.02;;;;;;;18.29;76.85;101311.47;5043122;28;20031;-79
2022/10/31 10:08:48;;;;;;;10.88;1.00;;;;;;;18.20;79.33;101305.41;5044576;28;20124;-78
2022/10/31 10:11:47;;;;;;;4.70;0.65;;;;;;;18.00;79.07;101309.47;5042408;28;20124;-79
2022/10/31 10:14:28;;;;;;;4.90;0.50;;;;;;;18.09;78.85;101304.97;5023993;28;20049;-80
2022/10/31 10:16:59;;;;;;;5.45;0.77;;;;;;;18.28;78.34;101298.44;5021042;28;20045;-81
2022/10/31 10:19:54;;;;;;;3.70;0.77;;;;;;;18.31;76.26;101300.72;5007280;28;20039;-80
2022/10/31 10:22:28;;;;;;;9.10;0.98;;;;;;;18.21;78.69;101301.78;5022651;28;20087;-81
2022/10/31 10:25:19;;;;;;;7.90;1.98;;;;;;;18.34;77.64;101297.75;5024438;28;20339;-81
2022/10/31 10:27:53;;;;;;;7.40;1.70;;;;;;;18.30;79.11;101302.56;5029211;28;20029;-81
2022/10/31 10:30:26;;;;;;;7.50;1.33;;;;;;;18.26;80.15;101297.78;5028209;28;20454;-81
2022/10/31 10:32:57;;;;;;;10.05;2.25;;;;;;;18.34;79.21;101297.75;5029134;28;20041;-80
2022/10/31 10:35:34;;;;;;;17.05;6.43;;;;;;;18.48;79.15;101296.97;5028544;28;20064;-81
2022/10/31 10:38:23;;;;;;;21.67;8.48;;;;;;;18.67;76.22;101296.53;5010483;28;20049;-81
2022/10/31 10:40:51;;;;;;;31.90;14.00;;;;;;;18.64;78.94;101296.06;5027860;28;20052;-80
2022/10/31 10:43:22;;;;;;;47.75;24.13;;;;;;;18.59;79.56;101304.47;5031175;28;20037;-81
2022/10/31 10:48:47;;;;;;;;;;;;;;;18.39;78.09;101298.03;5031270;28;20130;-81
2022/10/31 10:51:27;;;;;;;44.97;19.83;;;;;;;18.38;80.83;101299.03;5011635;28;19917;-81
2022/10/31 10:54:04;;;;;;;44.08;20.45;;;;;;;18.54;79.14;101291.00;5027603;28;20039;-81
2022/10/31 10:56:39;;;;;;;41.92;20.20;;;;;;;18.56;79.70;101294.28;5028785;28;20425;-81
2022/10/31 10:59:10;;;;;;;28.10;10.40;;;;;;;18.69;78.97;101289.25;5028513;28;20041;-81
2022/10/31 11:01:36;;;;;;;14.70;4.53;;;;;;;18.86;78.13;101285.50;5028307;28;20265;-81
2022/10/31 11:04:02;;;;;;;15.27;4.78;;;;;;;18.89;78.92;101281.69;5027964;28;20026;-81
2022/10/31 11:06:28;;;;;;;16.35;4.20;;;;;;;18.82;79.36;101280.75;5027571;28;20119;-81
2022/10/31 11:08:53;;;;;;;11.15;2.42;;;;;;;18.95;78.75;101278.28;5026934;28;20029;-81
2022/10/31 11:11:32;;;;;;;12.05;2.17;;;;;;;19.07;77.46;101282.16;5028202;28;20036;-81
2022/10/31 11:14:04;;;;;;;15.85;3.95;;;;;;;19.13;77.83;101280.59;5027907;28;20052;-81
2022/10/31 11:16:36;;;;;;;17.60;3.15;;;;;;;19.03;78.11;101277.41;5022089;28;20085;-81
2022/10/31 11:19:12;;;;;;;11.20;2.33;;;;;;;18.98;77.51;101274.47;5027970;28;20477;-81
2022/10/31 11:21:38;;;;;;;10.45;2.20;;;;;;;19.21;77.24;101276.06;5028223;28;20264;-83
2022/10/31 11:24:09;;;;;;;11.70;2.08;;;;;;;19.16;77.60;101272.31;5027531;28;20306;-81
2022/10/31 11:26:35;;;;;;;12.88;2.40;;;;;;;19.14;78.88;101272.50;5027717;28;20104;-81
2022/10/31 11:29:03;;;;;;;11.60;1.83;;;;;;;19.15;79.19;101268.03;5009682;28;20120;-81
2022/10/31 11:31:29;;;;;;;10.82;1.98;;;;;;;19.17;79.12;101264.22;5027680;28;20079;-80